sensor_id;sensor_type;location;lat;lon;timestamp;P1;durP1;ratioP1;P2;durP2;ratioP2
4636;SDS011;2331;48.806;9.140;2023-08-06T00:00:19;5.70;;;3.42;;
4636;SDS011;2331;48.806;9.140;2023-08-06T00:02:46;6.70;;;3.63;;
4636;SDS011;2331;48.806;9.140;2023-08-06T00:05:13;5.05;;;3.25;;
4636;SDS011;2331;48.806;9.140;2023-08-06T00:07:42;5.20;;;3.00;;
4636;SDS011;2331;48.806;9.140;2023-08-06T00:10:09;4.28;;;3.65;;
4636;SDS011;2331;48.806;9.140;2023-08-06T00:12:36;7.47;;;3.53;;
4636;SDS011;2331;48.806;9.140;2023-08-06T00:15:04;4.80;;;3.20;;
4636;SDS011;2331;48.806;9.140;2023-08-06T00:17:33;4.47;;;3.17;;
4636;SDS011;2331;48.806;9.140;2023-08-06T00:20:00;3.95;;;2.70;;
4636;SDS011;2331;48.806;9.140;2023-08-06T00:22:29;4.07;;;2.95;;
4636;SDS011;2331;48.806;9.140;2023-08-06T00:24:56;4.10;;;2.70;;
4636;SDS011;2331;48.806;9.140;2023-08-06T00:27:23;5.93;;;2.80;;
4636;SDS011;2331;48.806;9.140;2023-08-06T00:29:50;4.32;;;2.33;;
4636;SDS011;2331;48.806;9.140;2023-08-06T00:32:18;3.50;;;2.55;;
4636;SDS011;2331;48.806;9.140;2023-08-06T00:34:44;3.15;;;2.00;;
4636;SDS011;2331;48.806;9.140;2023-08-06T00:37:11;2.20;;;1.80;;
4636;SDS011;2331;48.806;9.140;2023-08-06T00:39:38;2.20;;;1.80;;
4636;SDS011;2331;48.806;9.140;2023-08-06T00:42:05;3.72;;;2.30;;
4636;SDS011;2331;48.806;9.140;2023-08-06T00:44:31;2.83;;;2.10;;
4636;SDS011;2331;48.806;9.140;2023-08-06T00:46:58;2.40;;;2.30;;
4636;SDS011;2331;48.806;9.140;2023-08-06T00:49:26;6.97;;;1.90;;
4636;SDS011;2331;48.806;9.140;2023-08-06T00:51:53;2.53;;;2.00;;
4636;SDS011;2331;48.806;9.140;2023-08-06T00:54:20;4.20;;;2.00;;
4636;SDS011;2331;48.806;9.140;2023-08-06T00:56:47;3.00;;;2.00;;
4636;SDS011;2331;48.806;9.140;2023-08-06T00:59:14;3.42;;;2.00;;
4636;SDS011;2331;48.806;9.140;2023-08-06T01:01:41;3.45;;;2.03;;
4636;SDS011;2331;48.806;9.140;2023-08-06T01:04:08;3.53;;;1.88;;
4636;SDS011;2331;48.806;9.140;2023-08-06T01:06:38;3.90;;;2.17;;
4636;SDS011;2331;48.806;9.140;2023-08-06T01:09:11;2.80;;;1.92;;
4636;SDS011;2331;48.806;9.140;2023-08-06T01:11:52;3.40;;;1.90;;
4636;SDS011;2331;48.806;9.140;2023-08-06T01:14:26;3.47;;;2.10;;
4636;SDS011;2331;48.806;9.140;2023-08-06T01:16:56;7.93;;;2.20;;
4636;SDS011;2331;48.806;9.140;2023-08-06T01:19:24;4.07;;;2.17;;
4636;SDS011;2331;48.806;9.140;2023-08-06T01:21:52;3.67;;;2.30;;
4636;SDS011;2331;48.806;9.140;2023-08-06T01:24:19;3.20;;;2.10;;
4636;SDS011;2331;48.806;9.140;2023-08-06T01:26:48;2.40;;;2.08;;
4636;SDS011;2331;48.806;9.140;2023-08-06T01:29:31;3.30;;;2.00;;
4636;SDS011;2331;48.806;9.140;2023-08-06T01:32:02;2.25;;;2.00;;
4636;SDS011;2331;48.806;9.140;2023-08-06T01:34:31;2.88;;;2.38;;
4636;SDS011;2331;48.806;9.140;2023-08-06T01:37:01;2.95;;;2.28;;
4636;SDS011;2331;48.806;9.140;2023-08-06T01:39:28;2.90;;;1.90;;
4636;SDS011;2331;48.806;9.140;2023-08-06T01:41:55;3.08;;;1.92;;
4636;SDS011;2331;48.806;9.140;2023-08-06T01:44:22;3.00;;;1.95;;
4636;SDS011;2331;48.806;9.140;2023-08-06T01:46:48;5.75;;;2.13;;
4636;SDS011;2331;48.806;9.140;2023-08-06T01:49:15;4.70;;;1.95;;
4636;SDS011;2331;48.806;9.140;2023-08-06T01:51:42;2.17;;;1.65;;
4636;SDS011;2331;48.806;9.140;2023-08-06T01:54:10;2.58;;;1.60;;
4636;SDS011;2331;48.806;9.140;2023-08-06T01:56:36;3.97;;;2.47;;
4636;SDS011;2331;48.806;9.140;2023-08-06T01:59:03;3.55;;;1.80;;
4636;SDS011;2331;48.806;9.140;2023-08-06T02:01:30;4.05;;;2.00;;
4636;SDS011;2331;48.806;9.140;2023-08-06T02:03:56;2.97;;;1.75;;
4636;SDS011;2331;48.806;9.140;2023-08-06T02:06:23;6.03;;;2.22;;
4636;SDS011;2331;48.806;9.140;2023-08-06T02:08:50;2.90;;;1.92;;
4636;SDS011;2331;48.806;9.140;2023-08-06T02:11:18;3.00;;;2.17;;
4636;SDS011;2331;48.806;9.140;2023-08-06T02:13:45;2.75;;;2.20;;
4636;SDS011;2331;48.806;9.140;2023-08-06T02:16:12;2.90;;;1.95;;
4636;SDS011;2331;48.806;9.140;2023-08-06T02:18:38;4.53;;;1.95;;
4636;SDS011;2331;48.806;9.140;2023-08-06T02:21:05;3.88;;;2.35;;
4636;SDS011;2331;48.806;9.140;2023-08-06T02:23:32;5.85;;;2.28;;
4636;SDS011;2331;48.806;9.140;2023-08-06T02:25:59;9.52;;;2.22;;
4636;SDS011;2331;48.806;9.140;2023-08-06T02:28:27;2.42;;;1.70;;
4636;SDS011;2331;48.806;9.140;2023-08-06T02:30:54;2.72;;;2.00;;
4636;SDS011;2331;48.806;9.140;2023-08-06T02:33:21;2.80;;;1.63;;
4636;SDS011;2331;48.806;9.140;2023-08-06T02:35:47;2.25;;;1.88;;
4636;SDS011;2331;48.806;9.140;2023-08-06T02:38:14;2.80;;;2.20;;
4636;SDS011;2331;48.806;9.140;2023-08-06T02:40:44;2.20;;;1.92;;
4636;SDS011;2331;48.806;9.140;2023-08-06T02:43:11;11.25;;;2.60;;
4636;SDS011;2331;48.806;9.140;2023-08-06T02:45:39;4.57;;;2.00;;
4636;SDS011;2331;48.806;9.140;2023-08-06T02:48:06;3.63;;;1.90;;
4636;SDS011;2331;48.806;9.140;2023-08-06T02:50:37;3.47;;;2.10;;
4636;SDS011;2331;48.806;9.140;2023-08-06T02:53:04;3.95;;;1.80;;
4636;SDS011;2331;48.806;9.140;2023-08-06T02:55:31;2.92;;;2.03;;
4636;SDS011;2331;48.806;9.140;2023-08-06T02:57:58;2.70;;;1.95;;
4636;SDS011;2331;48.806;9.140;2023-08-06T03:00:25;4.53;;;2.38;;
4636;SDS011;2331;48.806;9.140;2023-08-06T03:02:53;2.95;;;2.17;;
4636;SDS011;2331;48.806;9.140;2023-08-06T03:05:20;4.15;;;2.13;;
4636;SDS011;2331;48.806;9.140;2023-08-06T03:07:47;6.30;;;2.08;;
4636;SDS011;2331;48.806;9.140;2023-08-06T03:10:13;4.35;;;1.88;;
4636;SDS011;2331;48.806;9.140;2023-08-06T03:12:40;2.90;;;1.90;;
4636;SDS011;2331;48.806;9.140;2023-08-06T03:15:07;2.75;;;1.77;;
4636;SDS011;2331;48.806;9.140;2023-08-06T03:17:34;2.75;;;2.10;;
4636;SDS011;2331;48.806;9.140;2023-08-06T03:20:03;3.97;;;2.10;;
4636;SDS011;2331;48.806;9.140;2023-08-06T03:22:30;3.60;;;2.47;;
4636;SDS011;2331;48.806;9.140;2023-08-06T03:24:57;3.85;;;2.45;;
4636;SDS011;2331;48.806;9.140;2023-08-06T03:27:24;2.90;;;2.30;;
4636;SDS011;2331;48.806;9.140;2023-08-06T03:29:50;4.88;;;2.20;;
4636;SDS011;2331;48.806;9.140;2023-08-06T03:32:17;5.07;;;2.60;;
4636;SDS011;2331;48.806;9.140;2023-08-06T03:34:44;3.10;;;1.50;;
4636;SDS011;2331;48.806;9.140;2023-08-06T03:37:12;5.25;;;2.63;;
4636;SDS011;2331;48.806;9.140;2023-08-06T03:39:38;2.33;;;1.80;;
4636;SDS011;2331;48.806;9.140;2023-08-06T03:42:06;3.63;;;2.22;;
4636;SDS011;2331;48.806;9.140;2023-08-06T03:44:32;4.22;;;2.00;;
4636;SDS011;2331;48.806;9.140;2023-08-06T03:46:59;5.32;;;1.90;;
4636;SDS011;2331;48.806;9.140;2023-08-06T03:49:26;3.55;;;2.10;;
4636;SDS011;2331;48.806;9.140;2023-08-06T03:51:52;2.55;;;1.80;;
4636;SDS011;2331;48.806;9.140;2023-08-06T03:54:20;6.03;;;2.03;;
4636;SDS011;2331;48.806;9.140;2023-08-06T03:56:47;2.80;;;1.80;;
4636;SDS011;2331;48.806;9.140;2023-08-06T03:59:14;3.40;;;2.08;;
4636;SDS011;2331;48.806;9.140;2023-08-06T04:01:40;2.97;;;1.92;;
4636;SDS011;2331;48.806;9.140;2023-08-06T04:04:07;3.22;;;1.73;;
4636;SDS011;2331;48.806;9.140;2023-08-06T04:06:34;5.25;;;1.92;;
4636;SDS011;2331;48.806;9.140;2023-08-06T04:09:00;3.15;;;2.05;;
4636;SDS011;2331;48.806;9.140;2023-08-06T04:11:28;2.80;;;1.60;;
4636;SDS011;2331;48.806;9.140;2023-08-06T04:13:55;3.08;;;1.83;;
4636;SDS011;2331;48.806;9.140;2023-08-06T04:16:22;5.05;;;1.90;;
4636;SDS011;2331;48.806;9.140;2023-08-06T04:18:48;4.38;;;1.92;;
4636;SDS011;2331;48.806;9.140;2023-08-06T04:21:15;3.88;;;1.85;;
4636;SDS011;2331;48.806;9.140;2023-08-06T04:23:42;3.38;;;1.80;;
4636;SDS011;2331;48.806;9.140;2023-08-06T04:26:08;3.85;;;1.83;;
4636;SDS011;2331;48.806;9.140;2023-08-06T04:28:36;4.15;;;1.90;;
4636;SDS011;2331;48.806;9.140;2023-08-06T04:31:03;2.85;;;1.65;;
4636;SDS011;2331;48.806;9.140;2023-08-06T04:33:30;3.40;;;1.80;;
4636;SDS011;2331;48.806;9.140;2023-08-06T04:35:56;2.65;;;1.77;;
4636;SDS011;2331;48.806;9.140;2023-08-06T04:38:23;6.03;;;2.20;;
4636;SDS011;2331;48.806;9.140;2023-08-06T04:40:51;2.92;;;1.70;;
4636;SDS011;2331;48.806;9.140;2023-08-06T04:43:17;5.32;;;1.98;;
4636;SDS011;2331;48.806;9.140;2023-08-06T04:45:48;6.43;;;1.88;;
4636;SDS011;2331;48.806;9.140;2023-08-06T04:48:16;2.70;;;1.77;;
4636;SDS011;2331;48.806;9.140;2023-08-06T04:50:43;6.43;;;2.00;;
4636;SDS011;2331;48.806;9.140;2023-08-06T04:53:10;4.40;;;1.67;;
4636;SDS011;2331;48.806;9.140;2023-08-06T04:55:37;4.40;;;2.10;;
4636;SDS011;2331;48.806;9.140;2023-08-06T04:58:04;2.15;;;1.52;;
4636;SDS011;2331;48.806;9.140;2023-08-06T05:00:31;3.20;;;1.90;;
4636;SDS011;2331;48.806;9.140;2023-08-06T05:03:00;4.15;;;1.67;;
4636;SDS011;2331;48.806;9.140;2023-08-06T05:05:27;2.88;;;1.75;;
4636;SDS011;2331;48.806;9.140;2023-08-06T05:07:54;3.65;;;1.67;;
4636;SDS011;2331;48.806;9.140;2023-08-06T05:10:21;2.90;;;1.58;;
4636;SDS011;2331;48.806;9.140;2023-08-06T05:12:50;2.17;;;1.42;;
4636;SDS011;2331;48.806;9.140;2023-08-06T05:15:17;3.50;;;1.55;;
4636;SDS011;2331;48.806;9.140;2023-08-06T05:17:43;4.97;;;1.80;;
4636;SDS011;2331;48.806;9.140;2023-08-06T05:20:12;2.17;;;1.40;;
4636;SDS011;2331;48.806;9.140;2023-08-06T05:22:39;2.97;;;1.60;;
4636;SDS011;2331;48.806;9.140;2023-08-06T05:25:05;4.97;;;1.75;;
4636;SDS011;2331;48.806;9.140;2023-08-06T05:27:33;4.47;;;1.25;;
4636;SDS011;2331;48.806;9.140;2023-08-06T05:29:59;2.10;;;1.30;;
4636;SDS011;2331;48.806;9.140;2023-08-06T05:32:26;3.25;;;1.42;;
4636;SDS011;2331;48.806;9.140;2023-08-06T05:34:53;2.60;;;1.50;;
4636;SDS011;2331;48.806;9.140;2023-08-06T05:37:21;1.23;;;0.80;;
4636;SDS011;2331;48.806;9.140;2023-08-06T05:39:47;2.13;;;1.33;;
4636;SDS011;2331;48.806;9.140;2023-08-06T05:42:14;1.30;;;0.90;;
4636;SDS011;2331;48.806;9.140;2023-08-06T05:44:41;2.05;;;1.13;;
4636;SDS011;2331;48.806;9.140;2023-08-06T05:47:08;1.70;;;0.90;;
4636;SDS011;2331;48.806;9.140;2023-08-06T05:49:34;1.73;;;1.00;;
4636;SDS011;2331;48.806;9.140;2023-08-06T05:52:01;1.42;;;1.02;;
4636;SDS011;2331;48.806;9.140;2023-08-06T05:54:32;2.25;;;0.80;;
4636;SDS011;2331;48.806;9.140;2023-08-06T05:56:59;3.00;;;0.90;;
4636;SDS011;2331;48.806;9.140;2023-08-06T05:59:25;3.00;;;0.88;;
4636;SDS011;2331;48.806;9.140;2023-08-06T06:01:52;1.85;;;0.90;;
4636;SDS011;2331;48.806;9.140;2023-08-06T06:04:19;2.42;;;0.80;;
4636;SDS011;2331;48.806;9.140;2023-08-06T06:06:46;6.47;;;0.90;;
4636;SDS011;2331;48.806;9.140;2023-08-06T06:09:13;1.20;;;0.70;;
4636;SDS011;2331;48.806;9.140;2023-08-06T06:11:41;1.63;;;0.70;;
4636;SDS011;2331;48.806;9.140;2023-08-06T06:14:07;1.05;;;0.60;;
4636;SDS011;2331;48.806;9.140;2023-08-06T06:16:34;2.15;;;1.00;;
4636;SDS011;2331;48.806;9.140;2023-08-06T06:19:01;1.25;;;0.60;;
4636;SDS011;2331;48.806;9.140;2023-08-06T06:21:28;1.77;;;0.70;;
4636;SDS011;2331;48.806;9.140;2023-08-06T06:23:54;2.60;;;0.95;;
4636;SDS011;2331;48.806;9.140;2023-08-06T06:26:21;1.38;;;0.60;;
4636;SDS011;2331;48.806;9.140;2023-08-06T06:28:49;2.10;;;0.60;;
4636;SDS011;2331;48.806;9.140;2023-08-06T06:31:16;5.10;;;0.90;;
4636;SDS011;2331;48.806;9.140;2023-08-06T06:33:43;3.33;;;0.82;;
4636;SDS011;2331;48.806;9.140;2023-08-06T06:36:09;1.63;;;0.73;;
4636;SDS011;2331;48.806;9.140;2023-08-06T06:38:36;1.80;;;0.80;;
4636;SDS011;2331;48.806;9.140;2023-08-06T06:41:03;1.80;;;0.80;;
4636;SDS011;2331;48.806;9.140;2023-08-06T06:43:30;1.60;;;0.70;;
4636;SDS011;2331;48.806;9.140;2023-08-06T06:45:58;1.60;;;0.60;;
4636;SDS011;2331;48.806;9.140;2023-08-06T06:48:26;1.50;;;0.63;;
4636;SDS011;2331;48.806;9.140;2023-08-06T06:50:54;2.45;;;0.80;;
4636;SDS011;2331;48.806;9.140;2023-08-06T06:53:21;1.90;;;0.90;;
4636;SDS011;2331;48.806;9.140;2023-08-06T06:55:52;1.98;;;0.80;;
4636;SDS011;2331;48.806;9.140;2023-08-06T06:58:20;1.08;;;0.50;;
4636;SDS011;2331;48.806;9.140;2023-08-06T07:00:46;3.30;;;0.82;;
4636;SDS011;2331;48.806;9.140;2023-08-06T07:03:15;1.52;;;0.52;;
4636;SDS011;2331;48.806;9.140;2023-08-06T07:05:42;1.52;;;0.70;;
4636;SDS011;2331;48.806;9.140;2023-08-06T07:08:09;1.00;;;0.57;;
4636;SDS011;2331;48.806;9.140;2023-08-06T07:10:36;1.55;;;0.50;;
4636;SDS011;2331;48.806;9.140;2023-08-06T07:13:03;1.48;;;0.70;;
4636;SDS011;2331;48.806;9.140;2023-08-06T07:15:29;1.60;;;0.70;;
4636;SDS011;2331;48.806;9.140;2023-08-06T07:17:56;0.90;;;0.60;;
4636;SDS011;2331;48.806;9.140;2023-08-06T07:20:24;4.05;;;0.95;;
4636;SDS011;2331;48.806;9.140;2023-08-06T07:22:51;2.90;;;0.63;;
4636;SDS011;2331;48.806;9.140;2023-08-06T07:25:17;1.15;;;0.70;;
4636;SDS011;2331;48.806;9.140;2023-08-06T07:27:44;0.95;;;0.60;;
4636;SDS011;2331;48.806;9.140;2023-08-06T07:30:11;1.30;;;0.50;;
4636;SDS011;2331;48.806;9.140;2023-08-06T07:32:38;4.45;;;0.70;;
4636;SDS011;2331;48.806;9.140;2023-08-06T07:35:05;0.90;;;0.50;;
4636;SDS011;2331;48.806;9.140;2023-08-06T07:37:35;1.33;;;0.50;;
4636;SDS011;2331;48.806;9.140;2023-08-06T07:40:02;2.05;;;0.50;;
4636;SDS011;2331;48.806;9.140;2023-08-06T07:42:29;1.73;;;0.60;;
4636;SDS011;2331;48.806;9.140;2023-08-06T07:44:58;1.75;;;0.60;;
4636;SDS011;2331;48.806;9.140;2023-08-06T07:47:25;0.93;;;0.50;;
4636;SDS011;2331;48.806;9.140;2023-08-06T07:49:52;2.20;;;0.73;;
4636;SDS011;2331;48.806;9.140;2023-08-06T07:52:18;0.80;;;0.50;;
4636;SDS011;2331;48.806;9.140;2023-08-06T07:54:46;0.80;;;0.50;;
4636;SDS011;2331;48.806;9.140;2023-08-06T07:57:13;1.10;;;0.50;;
4636;SDS011;2331;48.806;9.140;2023-08-06T07:59:40;0.80;;;0.50;;
4636;SDS011;2331;48.806;9.140;2023-08-06T08:02:07;1.10;;;0.45;;
4636;SDS011;2331;48.806;9.140;2023-08-06T08:04:33;1.17;;;0.52;;
4636;SDS011;2331;48.806;9.140;2023-08-06T08:07:00;1.05;;;0.50;;
4636;SDS011;2331;48.806;9.140;2023-08-06T08:09:27;0.80;;;0.45;;
4636;SDS011;2331;48.806;9.140;2023-08-06T08:11:55;1.45;;;0.70;;
4636;SDS011;2331;48.806;9.140;2023-08-06T08:14:24;0.77;;;0.50;;
4636;SDS011;2331;48.806;9.140;2023-08-06T08:16:50;2.65;;;0.40;;
4636;SDS011;2331;48.806;9.140;2023-08-06T08:19:17;1.55;;;0.57;;
4636;SDS011;2331;48.806;9.140;2023-08-06T08:21:44;1.35;;;0.52;;
4636;SDS011;2331;48.806;9.140;2023-08-06T08:24:11;1.10;;;0.50;;
4636;SDS011;2331;48.806;9.140;2023-08-06T08:26:38;1.98;;;0.82;;
4636;SDS011;2331;48.806;9.140;2023-08-06T08:29:06;0.95;;;0.40;;
4636;SDS011;2331;48.806;9.140;2023-08-06T08:31:32;0.75;;;0.40;;
4636;SDS011;2331;48.806;9.140;2023-08-06T08:34:04;0.60;;;0.30;;
4636;SDS011;2331;48.806;9.140;2023-08-06T08:36:30;1.35;;;0.40;;
4636;SDS011;2331;48.806;9.140;2023-08-06T08:38:57;1.02;;;0.40;;
4636;SDS011;2331;48.806;9.140;2023-08-06T08:41:24;0.70;;;0.40;;
4636;SDS011;2331;48.806;9.140;2023-08-06T08:43:53;2.45;;;0.40;;
4636;SDS011;2331;48.806;9.140;2023-08-06T08:46:21;1.73;;;0.40;;
4636;SDS011;2331;48.806;9.140;2023-08-06T08:48:50;0.60;;;0.35;;
4636;SDS011;2331;48.806;9.140;2023-08-06T08:51:17;0.60;;;0.30;;
4636;SDS011;2331;48.806;9.140;2023-08-06T08:53:44;0.60;;;0.35;;
4636;SDS011;2331;48.806;9.140;2023-08-06T08:56:12;0.68;;;0.32;;
4636;SDS011;2331;48.806;9.140;2023-08-06T08:58:39;0.90;;;0.40;;
4636;SDS011;2331;48.806;9.140;2023-08-06T09:01:06;1.00;;;0.40;;
4636;SDS011;2331;48.806;9.140;2023-08-06T09:03:36;0.60;;;0.30;;
4636;SDS011;2331;48.806;9.140;2023-08-06T09:06:03;0.80;;;0.40;;
4636;SDS011;2331;48.806;9.140;2023-08-06T09:08:32;0.60;;;0.40;;
4636;SDS011;2331;48.806;9.140;2023-08-06T09:11:02;0.90;;;0.40;;
4636;SDS011;2331;48.806;9.140;2023-08-06T09:13:31;0.70;;;0.40;;
4636;SDS011;2331;48.806;9.140;2023-08-06T09:15:57;0.70;;;0.30;;
4636;SDS011;2331;48.806;9.140;2023-08-06T09:18:27;0.60;;;0.30;;
4636;SDS011;2331;48.806;9.140;2023-08-06T09:20:56;0.60;;;0.40;;
4636;SDS011;2331;48.806;9.140;2023-08-06T09:23:27;1.60;;;0.40;;
4636;SDS011;2331;48.806;9.140;2023-08-06T09:25:55;0.98;;;0.40;;
4636;SDS011;2331;48.806;9.140;2023-08-06T09:28:23;0.70;;;0.40;;
4636;SDS011;2331;48.806;9.140;2023-08-06T09:30:50;0.57;;;0.30;;
4636;SDS011;2331;48.806;9.140;2023-08-06T09:33:20;1.17;;;0.60;;
4636;SDS011;2331;48.806;9.140;2023-08-06T09:35:48;0.90;;;0.38;;
4636;SDS011;2331;48.806;9.140;2023-08-06T09:38:16;0.60;;;0.30;;
4636;SDS011;2331;48.806;9.140;2023-08-06T09:40:43;0.82;;;0.40;;
4636;SDS011;2331;48.806;9.140;2023-08-06T09:43:10;0.70;;;0.40;;
4636;SDS011;2331;48.806;9.140;2023-08-06T09:45:38;0.70;;;0.30;;
4636;SDS011;2331;48.806;9.140;2023-08-06T09:48:05;0.60;;;0.30;;
4636;SDS011;2331;48.806;9.140;2023-08-06T09:50:34;0.60;;;0.40;;
4636;SDS011;2331;48.806;9.140;2023-08-06T09:53:02;0.80;;;0.50;;
4636;SDS011;2331;48.806;9.140;2023-08-06T09:55:31;0.60;;;0.40;;
4636;SDS011;2331;48.806;9.140;2023-08-06T09:57:58;0.60;;;0.30;;
4636;SDS011;2331;48.806;9.140;2023-08-06T10:00:25;0.60;;;0.40;;
4636;SDS011;2331;48.806;9.140;2023-08-06T10:02:53;0.68;;;0.40;;
4636;SDS011;2331;48.806;9.140;2023-08-06T10:05:21;0.60;;;0.30;;
4636;SDS011;2331;48.806;9.140;2023-08-06T10:07:49;0.60;;;0.30;;
4636;SDS011;2331;48.806;9.140;2023-08-06T10:10:16;0.77;;;0.40;;
4636;SDS011;2331;48.806;9.140;2023-08-06T10:12:46;0.60;;;0.30;;
4636;SDS011;2331;48.806;9.140;2023-08-06T10:15:16;0.60;;;0.30;;
4636;SDS011;2331;48.806;9.140;2023-08-06T10:17:46;0.60;;;0.30;;
4636;SDS011;2331;48.806;9.140;2023-08-06T10:20:14;0.60;;;0.30;;
4636;SDS011;2331;48.806;9.140;2023-08-06T10:22:42;0.80;;;0.40;;
4636;SDS011;2331;48.806;9.140;2023-08-06T10:25:10;1.90;;;0.50;;
4636;SDS011;2331;48.806;9.140;2023-08-06T10:27:39;0.60;;;0.30;;
4636;SDS011;2331;48.806;9.140;2023-08-06T10:30:23;0.60;;;0.30;;
4636;SDS011;2331;48.806;9.140;2023-08-06T10:32:52;1.05;;;0.40;;
4636;SDS011;2331;48.806;9.140;2023-08-06T10:35:28;0.75;;;0.40;;
4636;SDS011;2331;48.806;9.140;2023-08-06T10:37:57;0.60;;;0.40;;
4636;SDS011;2331;48.806;9.140;2023-08-06T10:40:25;0.70;;;0.40;;
4636;SDS011;2331;48.806;9.140;2023-08-06T10:42:52;0.60;;;0.40;;
4636;SDS011;2331;48.806;9.140;2023-08-06T10:45:19;0.55;;;0.30;;
4636;SDS011;2331;48.806;9.140;2023-08-06T10:47:47;0.70;;;0.40;;
4636;SDS011;2331;48.806;9.140;2023-08-06T10:50:15;0.60;;;0.40;;
4636;SDS011;2331;48.806;9.140;2023-08-06T10:52:44;1.55;;;0.40;;
4636;SDS011;2331;48.806;9.140;2023-08-06T10:55:11;0.60;;;0.30;;
4636;SDS011;2331;48.806;9.140;2023-08-06T10:57:39;0.60;;;0.30;;
4636;SDS011;2331;48.806;9.140;2023-08-06T11:00:06;0.65;;;0.43;;
4636;SDS011;2331;48.806;9.140;2023-08-06T11:02:34;0.60;;;0.30;;
4636;SDS011;2331;48.806;9.140;2023-08-06T11:05:06;0.95;;;0.50;;
4636;SDS011;2331;48.806;9.140;2023-08-06T11:07:33;0.60;;;0.40;;
4636;SDS011;2331;48.806;9.140;2023-08-06T11:10:01;1.00;;;0.50;;
4636;SDS011;2331;48.806;9.140;2023-08-06T11:12:28;3.42;;;0.70;;
4636;SDS011;2331;48.806;9.140;2023-08-06T11:14:55;0.93;;;0.57;;
4636;SDS011;2331;48.806;9.140;2023-08-06T11:17:22;0.80;;;0.55;;
4636;SDS011;2331;48.806;9.140;2023-08-06T11:19:50;0.70;;;0.40;;
4636;SDS011;2331;48.806;9.140;2023-08-06T11:22:18;0.88;;;0.40;;
4636;SDS011;2331;48.806;9.140;2023-08-06T11:24:46;1.05;;;0.68;;
4636;SDS011;2331;48.806;9.140;2023-08-06T11:27:13;0.80;;;0.50;;
4636;SDS011;2331;48.806;9.140;2023-08-06T11:29:40;1.27;;;0.70;;
4636;SDS011;2331;48.806;9.140;2023-08-06T11:32:07;0.98;;;0.50;;
4636;SDS011;2331;48.806;9.140;2023-08-06T11:34:34;1.20;;;0.57;;
4636;SDS011;2331;48.806;9.140;2023-08-06T11:37:02;1.10;;;0.77;;
4636;SDS011;2331;48.806;9.140;2023-08-06T11:39:31;1.30;;;0.80;;
4636;SDS011;2331;48.806;9.140;2023-08-06T11:41:58;0.82;;;0.60;;
4636;SDS011;2331;48.806;9.140;2023-08-06T11:44:29;1.27;;;0.90;;
4636;SDS011;2331;48.806;9.140;2023-08-06T11:46:57;1.33;;;0.80;;
4636;SDS011;2331;48.806;9.140;2023-08-06T11:49:39;2.30;;;0.90;;
4636;SDS011;2331;48.806;9.140;2023-08-06T11:52:10;2.75;;;0.90;;
4636;SDS011;2331;48.806;9.140;2023-08-06T11:54:40;2.97;;;1.23;;
4636;SDS011;2331;48.806;9.140;2023-08-06T11:57:07;2.25;;;1.10;;
4636;SDS011;2331;48.806;9.140;2023-08-06T11:59:34;2.60;;;0.98;;
4636;SDS011;2331;48.806;9.140;2023-08-06T12:02:01;2.75;;;1.13;;
4636;SDS011;2331;48.806;9.140;2023-08-06T12:04:30;1.73;;;1.25;;
4636;SDS011;2331;48.806;9.140;2023-08-06T12:07:04;1.60;;;1.05;;
4636;SDS011;2331;48.806;9.140;2023-08-06T12:09:32;2.45;;;0.90;;
4636;SDS011;2331;48.806;9.140;2023-08-06T12:12:02;1.40;;;1.00;;
4636;SDS011;2331;48.806;9.140;2023-08-06T12:14:29;2.45;;;1.10;;
4636;SDS011;2331;48.806;9.140;2023-08-06T12:16:56;1.90;;;1.10;;
4636;SDS011;2331;48.806;9.140;2023-08-06T12:19:22;3.03;;;1.30;;
4636;SDS011;2331;48.806;9.140;2023-08-06T12:21:49;2.22;;;1.33;;
4636;SDS011;2331;48.806;9.140;2023-08-06T12:24:16;1.73;;;1.15;;
4636;SDS011;2331;48.806;9.140;2023-08-06T12:26:42;3.65;;;1.50;;
4636;SDS011;2331;48.806;9.140;2023-08-06T12:29:12;3.70;;;1.23;;
4636;SDS011;2331;48.806;9.140;2023-08-06T12:31:39;2.45;;;1.45;;
4636;SDS011;2331;48.806;9.140;2023-08-06T12:34:05;2.38;;;1.30;;
4636;SDS011;2331;48.806;9.140;2023-08-06T12:36:32;3.45;;;1.40;;
4636;SDS011;2331;48.806;9.140;2023-08-06T12:38:59;3.00;;;1.50;;
4636;SDS011;2331;48.806;9.140;2023-08-06T12:41:25;2.15;;;1.17;;
4636;SDS011;2331;48.806;9.140;2023-08-06T12:43:52;1.80;;;1.15;;
4636;SDS011;2331;48.806;9.140;2023-08-06T12:46:21;5.70;;;1.13;;
4636;SDS011;2331;48.806;9.140;2023-08-06T12:48:48;1.50;;;1.00;;
4636;SDS011;2331;48.806;9.140;2023-08-06T12:51:15;0.90;;;0.70;;
4636;SDS011;2331;48.806;9.140;2023-08-06T12:53:42;1.33;;;0.73;;
4636;SDS011;2331;48.806;9.140;2023-08-06T12:56:09;1.63;;;0.90;;
4636;SDS011;2331;48.806;9.140;2023-08-06T12:58:36;1.50;;;0.80;;
4636;SDS011;2331;48.806;9.140;2023-08-06T13:01:05;3.58;;;0.90;;
4636;SDS011;2331;48.806;9.140;2023-08-06T13:03:33;1.38;;;0.60;;
4636;SDS011;2331;48.806;9.140;2023-08-06T13:06:01;1.10;;;0.60;;
4636;SDS011;2331;48.806;9.140;2023-08-06T13:08:28;1.75;;;0.90;;
4636;SDS011;2331;48.806;9.140;2023-08-06T13:10:55;1.73;;;0.60;;
4636;SDS011;2331;48.806;9.140;2023-08-06T13:13:23;1.98;;;0.73;;
4636;SDS011;2331;48.806;9.140;2023-08-06T13:15:52;1.40;;;0.70;;
4636;SDS011;2331;48.806;9.140;2023-08-06T13:18:19;0.90;;;0.70;;
4636;SDS011;2331;48.806;9.140;2023-08-06T13:20:47;0.98;;;0.70;;
4636;SDS011;2331;48.806;9.140;2023-08-06T13:23:17;1.67;;;0.60;;
4636;SDS011;2331;48.806;9.140;2023-08-06T13:25:44;5.20;;;0.80;;
4636;SDS011;2331;48.806;9.140;2023-08-06T13:28:10;1.65;;;0.85;;
4636;SDS011;2331;48.806;9.140;2023-08-06T13:30:38;1.83;;;0.80;;
4636;SDS011;2331;48.806;9.140;2023-08-06T13:33:07;1.30;;;0.80;;
4636;SDS011;2331;48.806;9.140;2023-08-06T13:35:34;2.10;;;0.70;;
4636;SDS011;2331;48.806;9.140;2023-08-06T13:38:02;2.05;;;0.80;;
4636;SDS011;2331;48.806;9.140;2023-08-06T13:40:29;1.15;;;0.70;;
4636;SDS011;2331;48.806;9.140;2023-08-06T13:42:56;1.55;;;0.60;;
4636;SDS011;2331;48.806;9.140;2023-08-06T13:45:22;1.90;;;0.77;;
4636;SDS011;2331;48.806;9.140;2023-08-06T13:47:49;2.28;;;0.85;;
4636;SDS011;2331;48.806;9.140;2023-08-06T13:50:16;1.05;;;0.60;;
4636;SDS011;2331;48.806;9.140;2023-08-06T13:52:44;1.13;;;0.50;;
4636;SDS011;2331;48.806;9.140;2023-08-06T13:55:12;0.90;;;0.50;;
4636;SDS011;2331;48.806;9.140;2023-08-06T13:57:38;2.17;;;0.65;;
4636;SDS011;2331;48.806;9.140;2023-08-06T14:00:06;2.00;;;1.02;;
4636;SDS011;2331;48.806;9.140;2023-08-06T14:02:34;0.75;;;0.45;;
4636;SDS011;2331;48.806;9.140;2023-08-06T14:05:01;0.95;;;0.80;;
4636;SDS011;2331;48.806;9.140;2023-08-06T14:07:28;1.98;;;0.80;;
4636;SDS011;2331;48.806;9.140;2023-08-06T14:09:54;1.48;;;0.73;;
4636;SDS011;2331;48.806;9.140;2023-08-06T14:12:24;1.08;;;0.70;;
4636;SDS011;2331;48.806;9.140;2023-08-06T14:14:51;1.48;;;0.68;;
4636;SDS011;2331;48.806;9.140;2023-08-06T14:17:18;1.55;;;0.80;;
4636;SDS011;2331;48.806;9.140;2023-08-06T14:19:46;0.98;;;0.60;;
4636;SDS011;2331;48.806;9.140;2023-08-06T14:22:13;17.17;;;0.77;;
4636;SDS011;2331;48.806;9.140;2023-08-06T14:24:41;1.48;;;0.70;;
4636;SDS011;2331;48.806;9.140;2023-08-06T14:27:08;0.88;;;0.57;;
4636;SDS011;2331;48.806;9.140;2023-08-06T14:29:37;2.35;;;0.70;;
4636;SDS011;2331;48.806;9.140;2023-08-06T14:32:04;1.00;;;0.70;;
4636;SDS011;2331;48.806;9.140;2023-08-06T14:34:32;2.78;;;0.68;;
4636;SDS011;2331;48.806;9.140;2023-08-06T14:37:00;2.58;;;0.65;;
4636;SDS011;2331;48.806;9.140;2023-08-06T14:39:27;1.60;;;0.90;;
4636;SDS011;2331;48.806;9.140;2023-08-06T14:41:54;1.17;;;0.65;;
4636;SDS011;2331;48.806;9.140;2023-08-06T14:44:21;1.08;;;0.60;;
4636;SDS011;2331;48.806;9.140;2023-08-06T14:46:50;2.75;;;1.02;;
4636;SDS011;2331;48.806;9.140;2023-08-06T14:49:16;2.20;;;0.70;;
4636;SDS011;2331;48.806;9.140;2023-08-06T14:51:43;1.50;;;0.77;;
4636;SDS011;2331;48.806;9.140;2023-08-06T14:54:10;1.58;;;0.85;;
4636;SDS011;2331;48.806;9.140;2023-08-06T14:56:37;1.70;;;0.98;;
4636;SDS011;2331;48.806;9.140;2023-08-06T14:59:04;2.15;;;0.80;;
4636;SDS011;2331;48.806;9.140;2023-08-06T15:01:31;5.32;;;0.80;;
4636;SDS011;2331;48.806;9.140;2023-08-06T15:03:59;4.53;;;1.00;;
4636;SDS011;2331;48.806;9.140;2023-08-06T15:06:26;1.40;;;0.68;;
4636;SDS011;2331;48.806;9.140;2023-08-06T15:08:53;1.63;;;0.60;;
4636;SDS011;2331;48.806;9.140;2023-08-06T15:11:23;0.82;;;0.60;;
4636;SDS011;2331;48.806;9.140;2023-08-06T15:13:51;1.00;;;0.68;;
4636;SDS011;2331;48.806;9.140;2023-08-06T15:16:17;3.53;;;0.70;;